createdAt,value
2023-01-01T00:00:10.823Z,60.4
2023-01-01T00:05:21.817Z,60.3
2023-01-01T00:10:13.313Z,60.3
2023-01-01T00:15:36.131Z,60.2
2023-01-01T00:20:11.794Z,60.1
2023-01-01T00:26:04.235Z,60.1
2023-01-01T00:30:40.777Z,60.1
2023-01-01T00:35:47.578Z,60
2023-01-01T00:40:54.420Z,59.9
2023-01-01T00:45:53.777Z,59.9
2023-01-01T00:50:45.361Z,59.8
2023-01-01T00:55:53.044Z,59.8
2023-01-01T01:01:14.897Z,59.7
2023-01-01T01:06:23.670Z,59.6
2023-01-01T01:11:38.187Z,59.6
2023-01-01T01:16:52.667Z,59.5
2023-01-01T01:21:44.536Z,59.4
2023-01-01T01:26:55.245Z,59.4
2023-01-01T01:31:48.148Z,59.3
2023-01-01T01:37:02.697Z,59.3
2023-01-01T01:42:17.767Z,59.3
2023-01-01T01:47:29.677Z,59.2
2023-01-01T01:52:21.347Z,59.1
2023-01-01T01:56:57.408Z,59.1
2023-01-01T02:02:08.264Z,59
2023-01-01T02:07:15.884Z,58.9
2023-01-01T02:12:28.047Z,58.9
2023-01-01T02:17:19.544Z,58.9
2023-01-01T02:22:13.826Z,58.8
2023-01-01T02:27:04.365Z,58.8
2023-01-01T02:32:13.380Z,58.7
2023-01-01T02:37:05.004Z,58.6
2023-01-01T02:46:51.093Z,58.5
2023-01-01T02:52:02.224Z,58.4
2023-01-01T02:56:53.394Z,58.4
2023-01-01T03:01:59.673Z,58.4
2023-01-01T03:06:51.569Z,58.3
2023-01-01T03:11:59.240Z,58.3
2023-01-01T03:17:06.902Z,58.2
2023-01-01T03:21:57.631Z,58.1
2023-01-01T03:27:10.734Z,58.1
2023-01-01T03:32:18.356Z,58
2023-01-01T03:37:24.365Z,58
2023-01-01T03:42:00.887Z,57.9
2023-01-01T03:47:07.912Z,57.9
2023-01-01T03:52:15.472Z,57.8
2023-01-01T04:01:59.629Z,57.7
2023-01-01T04:07:14.991Z,57.7
2023-01-01T04:12:21.931Z,57.6
2023-01-01T04:17:29.730Z,57.6
2023-01-01T04:22:44.376Z,57.5
2023-01-01T04:27:35.719Z,57.4
2023-01-01T04:32:42.883Z,57.4
2023-01-01T04:37:34.188Z,57.3
2023-01-01T04:42:25.315Z,57.3
2023-01-01T04:47:33.395Z,57.3
2023-01-01T04:52:25.285Z,57.2
2023-01-01T04:57:31.599Z,57.1
2023-01-01T05:02:38.736Z,57.1
2023-01-01T05:07:30.191Z,57
2023-01-01T05:12:53.495Z,57
2023-01-01T05:18:15.414Z,56.9
2023-01-01T05:23:27.871Z,56.9
2023-01-01T05:28:51.278Z,56.8
2023-01-01T05:39:11.730Z,56.7
2023-01-01T05:44:34.917Z,56.6
2023-01-01T05:49:41.857Z,56.6
2023-01-01T05:54:48.269Z,56.6
2023-01-01T05:59:56.049Z,56.5
2023-01-01T06:05:26.553Z,56.4
2023-01-01T06:10:55.614Z,56.4
2023-01-01T06:16:21.490Z,56.3
2023-01-01T06:21:28.616Z,56.3
2023-01-01T06:26:52.224Z,56.2
2023-01-01T06:32:15.874Z,56.1
2023-01-01T06:37:40.283Z,56.1
2023-01-01T06:43:06.953Z,56.1
2023-01-01T06:48:30.507Z,55.9
2023-01-01T06:53:36.840Z,55.9
2023-01-01T06:58:48.343Z,55.9
2023-01-01T07:04:20.814Z,55.8
2023-01-01T07:09:48.447Z,55.8
2023-01-01T07:15:11.025Z,55.7
2023-01-01T07:20:34.884Z,55.6
2023-01-01T07:26:01.678Z,55.6
2023-01-01T07:31:24.233Z,55.5
2023-01-01T07:36:47.546Z,55.4
2023-01-01T07:42:11.027Z,55.4
2023-01-01T07:47:33.551Z,55.3
2023-01-01T07:52:41.384Z,55.3
2023-01-01T07:58:06.240Z,55.3
2023-01-01T08:03:36.619Z,55.2
2023-01-01T08:09:05.619Z,55.1
2023-01-01T08:14:28.822Z,55.1
2023-01-01T08:19:58.548Z,55
2023-01-01T08:25:21.549Z,54.9
2023-01-01T08:30:48.163Z,54.9
2023-01-01T08:36:11.193Z,54.9
2023-01-01T08:41:18.982Z,54.8
2023-01-01T08:46:45.398Z,54.8
2023-01-01T08:52:12.658Z,54.7
2023-01-01T08:57:35.666Z,54.6
2023-01-01T09:03:04.692Z,54.6
2023-01-01T09:08:15.228Z,54.6
2023-01-01T09:13:45.656Z,54.4
2023-01-01T09:19:10.542Z,54.4
2023-01-01T09:24:32.791Z,54.4
2023-01-01T09:30:01.049Z,54.3
2023-01-01T09:35:25.764Z,54.3
2023-01-01T09:40:51.254Z,54.2
2023-01-01T09:46:15.321Z,54.1
2023-01-01T09:51:43.296Z,54.1
2023-01-01T09:56:54.349Z,54.1
2023-01-01T10:02:09.967Z,54
2023-01-01T10:07:22.342Z,53.9
2023-01-01T10:12:45.284Z,53.9
2023-01-01T10:18:09.351Z,53.8
2023-01-01T10:23:20.801Z,53.8
2023-01-01T10:28:49.125Z,53.8
2023-01-01T10:34:03.840Z,53.7
2023-01-01T10:39:28.608Z,53.6
2023-01-01T10:44:58.039Z,53.6
2023-01-01T10:50:28.916Z,53.6
2023-01-01T10:55:54.166Z,53.5
2023-01-01T11:01:17.696Z,53.4
2023-01-01T11:06:49.335Z,53.3
2023-01-01T11:13:02.692Z,53.4
2023-01-01T11:18:26.275Z,53.8
2023-01-01T11:23:52.225Z,54.2
2023-01-01T11:29:14.830Z,54.5
2023-01-01T11:34:21.339Z,54.9
2023-01-01T11:39:52.175Z,55.3
2023-01-01T11:44:58.409Z,55.6
2023-01-01T11:50:27.028Z,55.9
2023-01-01T11:55:50.372Z,56.2
2023-01-01T12:01:12.265Z,56.4
2023-01-01T12:06:41.186Z,56.7
2023-01-01T12:12:09.540Z,56.9
2023-01-01T12:17:38.471Z,57.1
2023-01-01T12:23:01.464Z,57.3
2023-01-01T12:28:32.996Z,57.4
2023-01-01T12:33:25.355Z,57.5
2023-01-01T12:38:32.814Z,57.6
2023-01-01T12:49:13.310Z,57.8
2023-01-01T12:54:25.863Z,57.9
2023-01-01T12:59:33.839Z,57.9
2023-01-01T13:04:59.103Z,57.9
2023-01-01T13:10:12.214Z,57.9
2023-01-01T13:15:41.304Z,57.9
2023-01-01T13:21:04.035Z,57.9
2023-01-01T13:26:11.325Z,57.9
2023-01-01T13:31:23.011Z,57.8
2023-01-01T13:36:49.785Z,57.8
2023-01-01T13:42:11.664Z,57.8
2023-01-01T13:58:57.107Z,57.7
2023-01-01T14:04:22.040Z,57.6
2023-01-01T14:10:08.848Z,57.6
2023-01-01T14:15:31.242Z,57.6
2023-01-01T14:20:55.389Z,57.6
2023-01-01T14:26:17.705Z,57.5
2023-01-01T14:31:44.312Z,57.5
2023-01-01T14:37:07.863Z,57.4
2023-01-01T14:42:35.159Z,57.4
2023-01-01T14:48:01.061Z,57.4
2023-01-01T14:53:08.733Z,57.3
2023-01-01T14:58:31.526Z,57.3
2023-01-01T15:04:02.615Z,57.3
2023-01-01T15:09:28.165Z,57.2
2023-01-01T15:14:53.758Z,57.2
2023-01-01T15:20:07.530Z,57.1
2023-01-01T15:25:31.008Z,57.1
2023-01-01T15:31:00.976Z,57.1
2023-01-01T15:36:23.552Z,57
2023-01-01T15:41:47.045Z,57
2023-01-01T15:46:54.296Z,56.9
2023-01-01T15:52:16.427Z,56.9
2023-01-01T15:57:30.106Z,56.8
2023-01-01T16:02:53.532Z,56.8
2023-01-01T16:08:22.806Z,56.8
2023-01-01T16:13:50.517Z,56.7
2023-01-01T16:19:14.484Z,56.7
2023-01-01T16:24:09.810Z,56.6
2023-01-01T16:29:33.131Z,56.6
2023-01-01T16:34:45.694Z,56.6
2023-01-01T16:40:14.125Z,56.5
2023-01-01T16:45:44.568Z,56.4
2023-01-01T16:51:08.840Z,56.4
2023-01-01T16:56:25.454Z,56.4
2023-01-01T17:02:32.587Z,56.4
2023-01-01T17:07:57.891Z,56.3
2023-01-01T17:13:23.340Z,56.3
2023-01-01T17:19:33.531Z,56.3
2023-01-01T17:24:46.830Z,56.2
2023-01-01T17:29:53.778Z,56.1
2023-01-01T17:35:20.306Z,56.1
2023-01-01T17:40:29.676Z,56.1
2023-01-01T17:45:40.564Z,56.1
2023-01-01T17:50:48.421Z,56
2023-01-01T17:56:12.164Z,55.9
2023-01-01T18:01:26.030Z,55.9
2023-01-01T18:06:59.706Z,55.9
2023-01-01T18:11:53.449Z,55.8
2023-01-01T18:17:00.838Z,55.8
2023-01-01T18:22:23.725Z,55.8
2023-01-01T18:27:53.964Z,55.7
2023-01-01T18:33:04.706Z,55.7
2023-01-01T18:38:27.828Z,55.6
2023-01-01T18:43:56.842Z,55.6
2023-01-01T18:49:04.154Z,55.6
2023-01-01T18:54:11.963Z,55.5
2023-01-01T18:59:42.109Z,55.4
2023-01-01T19:04:50.980Z,55.4
2023-01-01T19:10:15.849Z,55.4
2023-01-01T19:15:22.781Z,55.4
2023-01-01T19:20:45.612Z,55.3
2023-01-01T19:26:08.781Z,55.3
2023-01-01T19:31:18.080Z,55.2
2023-01-01T19:36:41.080Z,55.2
2023-01-01T19:42:04.520Z,55.1
2023-01-01T19:47:34.431Z,55.1
2023-01-01T19:53:03.166Z,55.1
2023-01-01T19:58:26.912Z,55
2023-01-01T20:05:06.324Z,54.9
2023-01-01T20:10:28.586Z,54.9
2023-01-01T20:15:35.969Z,54.9
2023-01-01T20:20:58.703Z,54.8
2023-01-01T20:26:10.610Z,54.8
2023-01-01T20:31:38.090Z,54.8
2023-01-01T20:37:00.127Z,54.7
2023-01-01T20:42:23.259Z,54.6
2023-01-01T20:47:31.099Z,54.6
2023-01-01T20:52:53.456Z,54.5
2023-01-01T20:58:16.141Z,54.5
2023-01-01T21:03:52.594Z,54.4
2023-01-01T21:08:43.995Z,54.4
2023-01-01T21:14:06.972Z,54.4
2023-01-01T21:19:15.567Z,54.4
2023-01-01T21:24:06.878Z,54.3
2023-01-01T21:29:47.229Z,54.3
2023-01-01T21:35:02.603Z,54.2
2023-01-01T21:39:57.211Z,54.2
2023-01-01T21:44:48.552Z,54.1
2023-01-01T21:50:11.189Z,54.1
2023-01-01T21:55:07.741Z,54.1
2023-01-01T22:00:33.853Z,54
2023-01-01T22:06:02.924Z,54
2023-01-01T22:12:03.393Z,53.9
2023-01-01T22:22:38.446Z,53.9
2023-01-01T22:27:50.707Z,53.8
2023-01-01T22:33:13.043Z,53.8
2023-01-01T22:38:43.704Z,53.8
2023-01-01T22:44:06.642Z,53.7
2023-01-01T22:49:14.815Z,53.6
2023-01-01T22:54:22.948Z,53.6
2023-01-01T22:59:14.748Z,53.6
2023-01-01T23:04:22.412Z,53.5
2023-01-01T23:09:37.378Z,53.5
2023-01-01T23:14:44.884Z,53.4
2023-01-01T23:20:11.464Z,53.4
2023-01-01T23:25:25.786Z,53.4
2023-01-01T23:30:33.483Z,53.3
2023-01-01T23:35:57.248Z,53.3
2023-01-01T23:41:19.632Z,53.3
2023-01-01T23:46:51.158Z,53.3
2023-01-01T23:51:57.782Z,53.2
2023-01-01T23:57:19.444Z,53.1
